sensor_id;sensor_type;location;lat;lon;timestamp;temperature;humidity
18741;DHT22;9499;52.472;13.448;2022-09-03T00:01:40;15.40;1.00
18741;DHT22;9499;52.472;13.448;2022-09-03T00:04:13;15.40;1.00
18741;DHT22;9499;52.472;13.448;2022-09-03T00:06:48;15.40;1.00
18741;DHT22;9499;52.472;13.448;2022-09-03T00:09:23;15.30;1.00
18741;DHT22;9499;52.472;13.448;2022-09-03T00:11:54;15.30;1.00
18741;DHT22;9499;52.472;13.448;2022-09-03T00:14:25;15.20;1.00
18741;DHT22;9499;52.472;13.448;2022-09-03T00:16:55;15.20;1.00
18741;DHT22;9499;52.472;13.448;2022-09-03T00:19:26;15.20;1.00
18741;DHT22;9499;52.472;13.448;2022-09-03T00:21:56;15.20;1.00
18741;DHT22;9499;52.472;13.448;2022-09-03T00:24:27;15.20;1.00
18741;DHT22;9499;52.472;13.448;2022-09-03T00:26:59;15.20;1.00
18741;DHT22;9499;52.472;13.448;2022-09-03T00:29:31;15.20;1.00
18741;DHT22;9499;52.472;13.448;2022-09-03T00:32:05;15.10;1.00
18741;DHT22;9499;52.472;13.448;2022-09-03T00:34:35;15.10;1.00
18741;DHT22;9499;52.472;13.448;2022-09-03T00:37:06;15.10;1.00
18741;DHT22;9499;52.472;13.448;2022-09-03T00:39:34;15.10;1.00
18741;DHT22;9499;52.472;13.448;2022-09-03T00:42:17;15.10;1.00
18741;DHT22;9499;52.472;13.448;2022-09-03T00:45:01;15.00;1.00
18741;DHT22;9499;52.472;13.448;2022-09-03T00:47:39;15.00;1.00
18741;DHT22;9499;52.472;13.448;2022-09-03T00:50:16;15.00;1.00
18741;DHT22;9499;52.472;13.448;2022-09-03T00:52:50;14.90;1.00
18741;DHT22;9499;52.472;13.448;2022-09-03T00:55:25;14.90;1.00
18741;DHT22;9499;52.472;13.448;2022-09-03T00:58:06;14.80;1.00
18741;DHT22;9499;52.472;13.448;2022-09-03T01:00:35;14.80;1.00
18741;DHT22;9499;52.472;13.448;2022-09-03T01:03:06;14.80;1.00
18741;DHT22;9499;52.472;13.448;2022-09-03T01:05:59;14.80;1.00
18741;DHT22;9499;52.472;13.448;2022-09-03T01:08:38;14.70;1.00
18741;DHT22;9499;52.472;13.448;2022-09-03T01:11:18;14.70;1.00
18741;DHT22;9499;52.472;13.448;2022-09-03T01:13:54;14.80;1.00
18741;DHT22;9499;52.472;13.448;2022-09-03T01:16:26;14.70;1.00
18741;DHT22;9499;52.472;13.448;2022-09-03T01:19:00;14.70;1.00
18741;DHT22;9499;52.472;13.448;2022-09-03T01:21:43;14.60;1.00
18741;DHT22;9499;52.472;13.448;2022-09-03T01:24:45;14.60;1.00
18741;DHT22;9499;52.472;13.448;2022-09-03T01:27:24;14.60;1.00
18741;DHT22;9499;52.472;13.448;2022-09-03T01:30:01;14.50;1.00
18741;DHT22;9499;52.472;13.448;2022-09-03T01:32:38;14.50;1.00
18741;DHT22;9499;52.472;13.448;2022-09-03T01:35:14;14.50;1.00
18741;DHT22;9499;52.472;13.448;2022-09-03T01:37:54;14.50;1.00
18741;DHT22;9499;52.472;13.448;2022-09-03T01:40:29;14.50;1.00
18741;DHT22;9499;52.472;13.448;2022-09-03T01:43:08;14.50;1.00
18741;DHT22;9499;52.472;13.448;2022-09-03T01:45:50;14.40;1.00
18741;DHT22;9499;52.472;13.448;2022-09-03T01:48:29;14.40;1.00
18741;DHT22;9499;52.472;13.448;2022-09-03T01:51:04;14.30;1.00
18741;DHT22;9499;52.472;13.448;2022-09-03T01:53:45;14.30;1.00
18741;DHT22;9499;52.472;13.448;2022-09-03T01:56:24;14.30;1.00
18741;DHT22;9499;52.472;13.448;2022-09-03T01:58:58;14.30;1.00
18741;DHT22;9499;52.472;13.448;2022-09-03T02:01:32;14.30;1.00
18741;DHT22;9499;52.472;13.448;2022-09-03T02:04:11;14.30;1.00
18741;DHT22;9499;52.472;13.448;2022-09-03T02:06:39;14.30;1.00
18741;DHT22;9499;52.472;13.448;2022-09-03T02:09:05;14.30;1.00
18741;DHT22;9499;52.472;13.448;2022-09-03T02:11:32;14.20;1.00
18741;DHT22;9499;52.472;13.448;2022-09-03T02:13:59;14.20;1.00
18741;DHT22;9499;52.472;13.448;2022-09-03T02:16:29;14.20;1.00
18741;DHT22;9499;52.472;13.448;2022-09-03T02:19:00;14.20;1.00
18741;DHT22;9499;52.472;13.448;2022-09-03T02:21:32;14.20;1.00
18741;DHT22;9499;52.472;13.448;2022-09-03T02:23:59;14.20;1.00
18741;DHT22;9499;52.472;13.448;2022-09-03T02:26:26;14.10;1.00
18741;DHT22;9499;52.472;13.448;2022-09-03T02:28:53;14.10;1.00
18741;DHT22;9499;52.472;13.448;2022-09-03T02:31:20;14.00;1.00
18741;DHT22;9499;52.472;13.448;2022-09-03T02:33:48;14.00;1.00
18741;DHT22;9499;52.472;13.448;2022-09-03T02:36:19;13.90;1.00
18741;DHT22;9499;52.472;13.448;2022-09-03T02:38:46;13.90;1.00
18741;DHT22;9499;52.472;13.448;2022-09-03T02:41:13;13.90;1.00
18741;DHT22;9499;52.472;13.448;2022-09-03T02:43:42;13.90;1.00
18741;DHT22;9499;52.472;13.448;2022-09-03T02:46:15;13.90;1.00
18741;DHT22;9499;52.472;13.448;2022-09-03T02:48:42;13.90;1.00
18741;DHT22;9499;52.472;13.448;2022-09-03T02:51:08;13.80;1.00
18741;DHT22;9499;52.472;13.448;2022-09-03T02:53:36;13.70;1.00
18741;DHT22;9499;52.472;13.448;2022-09-03T02:56:03;13.70;1.00
18741;DHT22;9499;52.472;13.448;2022-09-03T02:58:30;13.70;1.00
18741;DHT22;9499;52.472;13.448;2022-09-03T03:00:57;13.70;1.00
18741;DHT22;9499;52.472;13.448;2022-09-03T03:03:24;13.70;1.00
18741;DHT22;9499;52.472;13.448;2022-09-03T03:05:52;13.70;1.00
18741;DHT22;9499;52.472;13.448;2022-09-03T03:08:21;13.60;1.00
18741;DHT22;9499;52.472;13.448;2022-09-03T03:10:50;13.60;1.00
18741;DHT22;9499;52.472;13.448;2022-09-03T03:13:17;13.60;1.00
18741;DHT22;9499;52.472;13.448;2022-09-03T03:15:44;13.60;1.00
18741;DHT22;9499;52.472;13.448;2022-09-03T03:18:12;13.60;1.00
18741;DHT22;9499;52.472;13.448;2022-09-03T03:20:39;13.60;1.00
18741;DHT22;9499;52.472;13.448;2022-09-03T03:23:07;13.60;1.00
18741;DHT22;9499;52.472;13.448;2022-09-03T03:25:34;13.60;1.00
18741;DHT22;9499;52.472;13.448;2022-09-03T03:28:02;13.50;1.00
18741;DHT22;9499;52.472;13.448;2022-09-03T03:30:30;13.50;1.00
18741;DHT22;9499;52.472;13.448;2022-09-03T03:32:57;13.50;1.00
18741;DHT22;9499;52.472;13.448;2022-09-03T03:35:24;13.50;1.00
18741;DHT22;9499;52.472;13.448;2022-09-03T03:37:50;13.50;1.00
18741;DHT22;9499;52.472;13.448;2022-09-03T03:40:17;13.50;1.00
18741;DHT22;9499;52.472;13.448;2022-09-03T03:42:44;13.50;1.00
18741;DHT22;9499;52.472;13.448;2022-09-03T03:45:12;13.50;1.00
18741;DHT22;9499;52.472;13.448;2022-09-03T03:47:38;13.50;1.00
18741;DHT22;9499;52.472;13.448;2022-09-03T03:50:06;13.40;1.00
18741;DHT22;9499;52.472;13.448;2022-09-03T03:52:32;13.40;1.00
18741;DHT22;9499;52.472;13.448;2022-09-03T03:54:59;13.40;1.00
18741;DHT22;9499;52.472;13.448;2022-09-03T03:57:29;13.40;1.00
18741;DHT22;9499;52.472;13.448;2022-09-03T03:59:56;13.30;1.00
18741;DHT22;9499;52.472;13.448;2022-09-03T04:02:24;13.30;1.00
18741;DHT22;9499;52.472;13.448;2022-09-03T04:04:50;13.30;1.00
18741;DHT22;9499;52.472;13.448;2022-09-03T04:07:17;13.30;1.00
18741;DHT22;9499;52.472;13.448;2022-09-03T04:09:43;13.20;1.00
18741;DHT22;9499;52.472;13.448;2022-09-03T04:12:10;13.30;1.00
18741;DHT22;9499;52.472;13.448;2022-09-03T04:14:36;13.30;1.00
18741;DHT22;9499;52.472;13.448;2022-09-03T04:17:03;13.20;1.00
18741;DHT22;9499;52.472;13.448;2022-09-03T04:19:31;13.20;1.00
18741;DHT22;9499;52.472;13.448;2022-09-03T04:21:57;13.20;1.00
18741;DHT22;9499;52.472;13.448;2022-09-03T04:24:24;13.20;1.00
18741;DHT22;9499;52.472;13.448;2022-09-03T04:26:51;13.10;1.00
18741;DHT22;9499;52.472;13.448;2022-09-03T04:29:18;13.20;1.00
18741;DHT22;9499;52.472;13.448;2022-09-03T04:31:46;13.20;1.00
18741;DHT22;9499;52.472;13.448;2022-09-03T04:34:26;13.20;1.00
18741;DHT22;9499;52.472;13.448;2022-09-03T04:36:54;13.20;1.00
18741;DHT22;9499;52.472;13.448;2022-09-03T04:39:21;13.10;1.00
18741;DHT22;9499;52.472;13.448;2022-09-03T04:41:48;13.10;1.00
18741;DHT22;9499;52.472;13.448;2022-09-03T04:44:14;13.10;1.00
18741;DHT22;9499;52.472;13.448;2022-09-03T04:46:41;13.20;1.00
18741;DHT22;9499;52.472;13.448;2022-09-03T04:49:08;13.20;1.00
18741;DHT22;9499;52.472;13.448;2022-09-03T04:51:36;13.10;1.00
18741;DHT22;9499;52.472;13.448;2022-09-03T04:54:04;13.20;1.00
18741;DHT22;9499;52.472;13.448;2022-09-03T04:56:33;13.20;1.00
18741;DHT22;9499;52.472;13.448;2022-09-03T04:59:02;13.20;1.00
18741;DHT22;9499;52.472;13.448;2022-09-03T05:01:30;13.20;1.00
18741;DHT22;9499;52.472;13.448;2022-09-03T05:03:57;13.20;1.00
18741;DHT22;9499;52.472;13.448;2022-09-03T05:06:25;13.20;1.00
18741;DHT22;9499;52.472;13.448;2022-09-03T05:08:53;13.20;1.00
18741;DHT22;9499;52.472;13.448;2022-09-03T05:11:22;13.20;1.00
18741;DHT22;9499;52.472;13.448;2022-09-03T05:13:50;13.30;1.00
18741;DHT22;9499;52.472;13.448;2022-09-03T05:16:18;13.30;1.00
18741;DHT22;9499;52.472;13.448;2022-09-03T05:18:45;13.30;1.00
18741;DHT22;9499;52.472;13.448;2022-09-03T05:21:14;13.40;1.00
18741;DHT22;9499;52.472;13.448;2022-09-03T05:23:42;13.40;1.00
18741;DHT22;9499;52.472;13.448;2022-09-03T05:26:11;13.40;1.00
18741;DHT22;9499;52.472;13.448;2022-09-03T05:28:40;13.40;1.00
18741;DHT22;9499;52.472;13.448;2022-09-03T05:31:09;13.40;1.00
18741;DHT22;9499;52.472;13.448;2022-09-03T05:33:37;13.50;1.00
18741;DHT22;9499;52.472;13.448;2022-09-03T05:36:07;13.50;1.00
18741;DHT22;9499;52.472;13.448;2022-09-03T05:38:34;13.60;1.00
18741;DHT22;9499;52.472;13.448;2022-09-03T05:41:03;13.60;1.60
18741;DHT22;9499;52.472;13.448;2022-09-03T05:43:30;13.70;1.00
18741;DHT22;9499;52.472;13.448;2022-09-03T05:45:59;13.70;4.80
18741;DHT22;9499;52.472;13.448;2022-09-03T05:48:26;13.80;1.00
18741;DHT22;9499;52.472;13.448;2022-09-03T05:50:59;13.90;1.00
18741;DHT22;9499;52.472;13.448;2022-09-03T05:53:26;14.00;1.00
18741;DHT22;9499;52.472;13.448;2022-09-03T05:55:56;14.00;1.00
18741;DHT22;9499;52.472;13.448;2022-09-03T05:58:23;14.10;1.00
18741;DHT22;9499;52.472;13.448;2022-09-03T06:00:49;14.10;1.00
18741;DHT22;9499;52.472;13.448;2022-09-03T06:03:17;14.10;1.00
18741;DHT22;9499;52.472;13.448;2022-09-03T06:05:49;14.10;1.00
18741;DHT22;9499;52.472;13.448;2022-09-03T06:08:16;14.10;4.70
18741;DHT22;9499;52.472;13.448;2022-09-03T06:10:43;14.10;1.00
18741;DHT22;9499;52.472;13.448;2022-09-03T06:13:10;14.10;1.00
18741;DHT22;9499;52.472;13.448;2022-09-03T06:15:36;14.10;1.00
18741;DHT22;9499;52.472;13.448;2022-09-03T06:18:03;14.10;1.00
18741;DHT22;9499;52.472;13.448;2022-09-03T06:20:31;14.20;1.80
18741;DHT22;9499;52.472;13.448;2022-09-03T06:22:59;14.20;1.00
18741;DHT22;9499;52.472;13.448;2022-09-03T06:25:25;14.30;1.00
18741;DHT22;9499;52.472;13.448;2022-09-03T06:27:52;14.20;1.00
18741;DHT22;9499;52.472;13.448;2022-09-03T06:30:18;14.20;1.10
18741;DHT22;9499;52.472;13.448;2022-09-03T06:32:48;14.30;3.30
18741;DHT22;9499;52.472;13.448;2022-09-03T06:35:15;14.30;1.00
18741;DHT22;9499;52.472;13.448;2022-09-03T06:37:43;14.30;1.00
18741;DHT22;9499;52.472;13.448;2022-09-03T06:40:10;14.40;1.00
18741;DHT22;9499;52.472;13.448;2022-09-03T06:42:38;14.40;1.00
18741;DHT22;9499;52.472;13.448;2022-09-03T06:45:06;14.40;1.00
18741;DHT22;9499;52.472;13.448;2022-09-03T06:47:33;14.50;1.00
18741;DHT22;9499;52.472;13.448;2022-09-03T06:49:59;14.50;1.00
18741;DHT22;9499;52.472;13.448;2022-09-03T06:52:26;14.50;1.00
18741;DHT22;9499;52.472;13.448;2022-09-03T06:54:54;14.60;1.00
18741;DHT22;9499;52.472;13.448;2022-09-03T06:57:20;14.60;1.00
18741;DHT22;9499;52.472;13.448;2022-09-03T06:59:50;14.70;1.00
18741;DHT22;9499;52.472;13.448;2022-09-03T07:02:18;14.70;1.00
18741;DHT22;9499;52.472;13.448;2022-09-03T07:04:47;14.80;1.00
18741;DHT22;9499;52.472;13.448;2022-09-03T07:07:14;14.90;1.00
18741;DHT22;9499;52.472;13.448;2022-09-03T07:09:46;15.00;1.00
18741;DHT22;9499;52.472;13.448;2022-09-03T07:12:14;15.00;1.00
18741;DHT22;9499;52.472;13.448;2022-09-03T07:14:45;15.10;1.00
18741;DHT22;9499;52.472;13.448;2022-09-03T07:17:11;15.10;1.00
18741;DHT22;9499;52.472;13.448;2022-09-03T07:19:38;15.20;1.00
18741;DHT22;9499;52.472;13.448;2022-09-03T07:22:04;15.30;1.00
18741;DHT22;9499;52.472;13.448;2022-09-03T07:24:32;15.40;1.00
18741;DHT22;9499;52.472;13.448;2022-09-03T07:26:58;15.60;1.00
18741;DHT22;9499;52.472;13.448;2022-09-03T07:29:28;15.70;1.00
18741;DHT22;9499;52.472;13.448;2022-09-03T07:31:55;15.80;1.00
18741;DHT22;9499;52.472;13.448;2022-09-03T07:34:22;15.80;1.00
18741;DHT22;9499;52.472;13.448;2022-09-03T07:36:51;16.00;1.00
18741;DHT22;9499;52.472;13.448;2022-09-03T07:39:18;16.10;1.00
18741;DHT22;9499;52.472;13.448;2022-09-03T07:41:45;16.10;1.00
18741;DHT22;9499;52.472;13.448;2022-09-03T07:44:13;16.10;1.00
18741;DHT22;9499;52.472;13.448;2022-09-03T07:46:41;16.10;1.00
18741;DHT22;9499;52.472;13.448;2022-09-03T07:49:10;16.20;1.00
18741;DHT22;9499;52.472;13.448;2022-09-03T07:51:37;16.30;1.00
18741;DHT22;9499;52.472;13.448;2022-09-03T07:54:06;16.30;1.00
18741;DHT22;9499;52.472;13.448;2022-09-03T07:56:34;16.30;1.00
18741;DHT22;9499;52.472;13.448;2022-09-03T07:59:02;16.40;1.00
18741;DHT22;9499;52.472;13.448;2022-09-03T08:01:29;16.50;1.00
18741;DHT22;9499;52.472;13.448;2022-09-03T08:03:59;16.50;1.00
18741;DHT22;9499;52.472;13.448;2022-09-03T08:06:27;16.60;1.00
18741;DHT22;9499;52.472;13.448;2022-09-03T08:08:55;16.70;1.00
18741;DHT22;9499;52.472;13.448;2022-09-03T08:11:23;16.80;1.00
18741;DHT22;9499;52.472;13.448;2022-09-03T08:13:54;17.00;1.00
18741;DHT22;9499;52.472;13.448;2022-09-03T08:16:26;17.10;1.00
18741;DHT22;9499;52.472;13.448;2022-09-03T08:18:53;17.20;1.00
18741;DHT22;9499;52.472;13.448;2022-09-03T08:21:22;17.30;1.00
18741;DHT22;9499;52.472;13.448;2022-09-03T08:23:51;17.50;1.00
18741;DHT22;9499;52.472;13.448;2022-09-03T08:26:20;17.60;1.00
18741;DHT22;9499;52.472;13.448;2022-09-03T08:28:47;17.70;1.00
18741;DHT22;9499;52.472;13.448;2022-09-03T08:31:16;17.80;1.00
18741;DHT22;9499;52.472;13.448;2022-09-03T08:33:44;17.80;1.00
18741;DHT22;9499;52.472;13.448;2022-09-03T08:36:12;17.80;1.00
18741;DHT22;9499;52.472;13.448;2022-09-03T08:38:42;17.80;1.00
18741;DHT22;9499;52.472;13.448;2022-09-03T08:41:12;17.80;1.00
18741;DHT22;9499;52.472;13.448;2022-09-03T08:43:57;17.90;1.00
18741;DHT22;9499;52.472;13.448;2022-09-03T08:46:35;17.90;1.00
18741;DHT22;9499;52.472;13.448;2022-09-03T08:49:08;17.90;1.00
18741;DHT22;9499;52.472;13.448;2022-09-03T08:51:37;18.00;1.00
18741;DHT22;9499;52.472;13.448;2022-09-03T08:54:07;18.00;1.00
18741;DHT22;9499;52.472;13.448;2022-09-03T08:56:37;18.10;1.00
18741;DHT22;9499;52.472;13.448;2022-09-03T08:59:05;18.20;1.00
18741;DHT22;9499;52.472;13.448;2022-09-03T09:01:39;18.30;1.00
18741;DHT22;9499;52.472;13.448;2022-09-03T09:04:19;18.30;1.00
18741;DHT22;9499;52.472;13.448;2022-09-03T09:06:52;18.30;1.00
18741;DHT22;9499;52.472;13.448;2022-09-03T09:09:27;18.40;1.00
18741;DHT22;9499;52.472;13.448;2022-09-03T09:12:03;18.40;1.00
18741;DHT22;9499;52.472;13.448;2022-09-03T09:14:40;18.60;1.00
18741;DHT22;9499;52.472;13.448;2022-09-03T09:17:28;18.60;1.00
18741;DHT22;9499;52.472;13.448;2022-09-03T09:20:05;18.70;1.00
18741;DHT22;9499;52.472;13.448;2022-09-03T09:22:37;18.90;1.00
18741;DHT22;9499;52.472;13.448;2022-09-03T09:25:09;19.00;1.00
18741;DHT22;9499;52.472;13.448;2022-09-03T09:27:44;19.10;1.00
18741;DHT22;9499;52.472;13.448;2022-09-03T09:30:16;19.20;1.00
18741;DHT22;9499;52.472;13.448;2022-09-03T09:32:43;19.30;1.00
18741;DHT22;9499;52.472;13.448;2022-09-03T09:35:11;19.40;1.00
18741;DHT22;9499;52.472;13.448;2022-09-03T09:37:46;19.40;1.00
18741;DHT22;9499;52.472;13.448;2022-09-03T09:40:28;19.50;1.00
18741;DHT22;9499;52.472;13.448;2022-09-03T09:43:09;19.60;1.00
18741;DHT22;9499;52.472;13.448;2022-09-03T09:45:37;19.70;1.00
18741;DHT22;9499;52.472;13.448;2022-09-03T09:48:09;19.80;99.90
18741;DHT22;9499;52.472;13.448;2022-09-03T09:50:36;19.90;99.90
18741;DHT22;9499;52.472;13.448;2022-09-03T09:53:05;20.00;99.90
18741;DHT22;9499;52.472;13.448;2022-09-03T09:55:49;20.10;99.90
18741;DHT22;9499;52.472;13.448;2022-09-03T09:58:19;20.40;1.00
18741;DHT22;9499;52.472;13.448;2022-09-03T10:00:54;20.60;1.00
18741;DHT22;9499;52.472;13.448;2022-09-03T10:03:21;21.10;99.90
18741;DHT22;9499;52.472;13.448;2022-09-03T10:05:57;21.50;1.00
18741;DHT22;9499;52.472;13.448;2022-09-03T10:08:26;22.10;99.90
18741;DHT22;9499;52.472;13.448;2022-09-03T10:10:54;22.40;1.00
18741;DHT22;9499;52.472;13.448;2022-09-03T10:13:24;22.70;67.70
18741;DHT22;9499;52.472;13.448;2022-09-03T10:15:56;22.90;1.00
18741;DHT22;9499;52.472;13.448;2022-09-03T10:18:32;23.20;99.90
18741;DHT22;9499;52.472;13.448;2022-09-03T10:21:05;23.50;1.00
18741;DHT22;9499;52.472;13.448;2022-09-03T10:23:46;23.70;1.00
18741;DHT22;9499;52.472;13.448;2022-09-03T10:26:18;23.80;99.90
18741;DHT22;9499;52.472;13.448;2022-09-03T10:28:50;23.70;99.90
18741;DHT22;9499;52.472;13.448;2022-09-03T10:31:35;23.50;99.90
18741;DHT22;9499;52.472;13.448;2022-09-03T10:34:09;23.30;99.60
18741;DHT22;9499;52.472;13.448;2022-09-03T10:36:42;23.40;1.00
18741;DHT22;9499;52.472;13.448;2022-09-03T10:39:14;23.40;1.00
18741;DHT22;9499;52.472;13.448;2022-09-03T10:41:57;23.10;1.00
18741;DHT22;9499;52.472;13.448;2022-09-03T10:44:41;22.70;1.00
18741;DHT22;9499;52.472;13.448;2022-09-03T10:47:26;22.40;1.00
18741;DHT22;9499;52.472;13.448;2022-09-03T10:50:02;22.30;1.00
18741;DHT22;9499;52.472;13.448;2022-09-03T10:52:39;22.20;25.80
18741;DHT22;9499;52.472;13.448;2022-09-03T10:55:17;22.00;99.90
18741;DHT22;9499;52.472;13.448;2022-09-03T10:57:53;21.80;99.90
18741;DHT22;9499;52.472;13.448;2022-09-03T11:00:23;21.70;99.90
18741;DHT22;9499;52.472;13.448;2022-09-03T11:03:19;21.80;99.90
18741;DHT22;9499;52.472;13.448;2022-09-03T11:05:57;22.00;22.40
18741;DHT22;9499;52.472;13.448;2022-09-03T11:08:29;22.20;47.40
18741;DHT22;9499;52.472;13.448;2022-09-03T11:11:01;22.40;99.90
18741;DHT22;9499;52.472;13.448;2022-09-03T11:13:36;22.80;1.00
18741;DHT22;9499;52.472;13.448;2022-09-03T11:16:07;23.10;1.00
18741;DHT22;9499;52.472;13.448;2022-09-03T11:18:40;23.10;1.00
18741;DHT22;9499;52.472;13.448;2022-09-03T11:21:10;23.10;1.00
18741;DHT22;9499;52.472;13.448;2022-09-03T11:23:44;23.30;1.00
18741;DHT22;9499;52.472;13.448;2022-09-03T11:26:17;23.30;1.00
18741;DHT22;9499;52.472;13.448;2022-09-03T11:28:55;23.10;99.90
18741;DHT22;9499;52.472;13.448;2022-09-03T11:31:31;23.00;99.90
18741;DHT22;9499;52.472;13.448;2022-09-03T11:34:03;22.80;99.90
18741;DHT22;9499;52.472;13.448;2022-09-03T11:36:32;22.70;99.90
18741;DHT22;9499;52.472;13.448;2022-09-03T11:39:00;22.60;1.00
18741;DHT22;9499;52.472;13.448;2022-09-03T11:41:37;22.90;1.00
18741;DHT22;9499;52.472;13.448;2022-09-03T11:44:16;23.50;99.90
18741;DHT22;9499;52.472;13.448;2022-09-03T11:46:52;23.80;99.90
18741;DHT22;9499;52.472;13.448;2022-09-03T11:49:27;23.90;99.90
18741;DHT22;9499;52.472;13.448;2022-09-03T11:51:58;23.90;79.60
18741;DHT22;9499;52.472;13.448;2022-09-03T11:54:26;24.10;87.20
18741;DHT22;9499;52.472;13.448;2022-09-03T11:57:06;24.30;65.70
18741;DHT22;9499;52.472;13.448;2022-09-03T11:59:38;24.40;48.80
18741;DHT22;9499;52.472;13.448;2022-09-03T12:02:15;24.30;36.90
18741;DHT22;9499;52.472;13.448;2022-09-03T12:04:48;24.20;1.00
18741;DHT22;9499;52.472;13.448;2022-09-03T12:07:33;24.10;15.10
18741;DHT22;9499;52.472;13.448;2022-09-03T12:10:14;24.30;1.00
18741;DHT22;9499;52.472;13.448;2022-09-03T12:12:56;24.70;1.00
18741;DHT22;9499;52.472;13.448;2022-09-03T12:15:43;25.20;1.00
18741;DHT22;9499;52.472;13.448;2022-09-03T12:18:18;25.70;1.00
18741;DHT22;9499;52.472;13.448;2022-09-03T12:20:59;25.50;1.00
18741;DHT22;9499;52.472;13.448;2022-09-03T12:23:28;25.10;1.00
18741;DHT22;9499;52.472;13.448;2022-09-03T12:25:57;24.70;1.00
18741;DHT22;9499;52.472;13.448;2022-09-03T12:28:27;24.30;1.00
18741;DHT22;9499;52.472;13.448;2022-09-03T12:31:05;24.20;1.00
18741;DHT22;9499;52.472;13.448;2022-09-03T12:33:33;24.60;1.00
18741;DHT22;9499;52.472;13.448;2022-09-03T12:36:00;25.00;1.00
18741;DHT22;9499;52.472;13.448;2022-09-03T12:38:28;25.00;1.00
18741;DHT22;9499;52.472;13.448;2022-09-03T12:40:56;24.80;1.00
18741;DHT22;9499;52.472;13.448;2022-09-03T12:43:27;24.50;1.00
18741;DHT22;9499;52.472;13.448;2022-09-03T12:45:55;24.40;1.00
18741;DHT22;9499;52.472;13.448;2022-09-03T12:48:22;24.20;1.00
18741;DHT22;9499;52.472;13.448;2022-09-03T12:51:00;24.40;1.00
18741;DHT22;9499;52.472;13.448;2022-09-03T12:53:28;24.80;1.00
18741;DHT22;9499;52.472;13.448;2022-09-03T12:55:58;24.70;1.00
18741;DHT22;9499;52.472;13.448;2022-09-03T12:58:30;24.50;1.00
18741;DHT22;9499;52.472;13.448;2022-09-03T13:01:04;24.50;1.00
18741;DHT22;9499;52.472;13.448;2022-09-03T13:03:43;24.30;1.00
18741;DHT22;9499;52.472;13.448;2022-09-03T13:06:14;24.10;1.00
18741;DHT22;9499;52.472;13.448;2022-09-03T13:08:45;24.00;1.00
18741;DHT22;9499;52.472;13.448;2022-09-03T13:11:15;24.00;1.00
18741;DHT22;9499;52.472;13.448;2022-09-03T13:13:52;24.00;1.00
18741;DHT22;9499;52.472;13.448;2022-09-03T13:19:40;23.80;1.00
18741;DHT22;9499;52.472;13.448;2022-09-03T13:22:20;23.90;1.00
18741;DHT22;9499;52.472;13.448;2022-09-03T13:24:59;23.90;1.00
18741;DHT22;9499;52.472;13.448;2022-09-03T13:27:31;23.80;1.00
18741;DHT22;9499;52.472;13.448;2022-09-03T13:30:04;23.60;1.00
18741;DHT22;9499;52.472;13.448;2022-09-03T13:32:46;23.50;1.00
18741;DHT22;9499;52.472;13.448;2022-09-03T13:35:25;23.40;1.00
18741;DHT22;9499;52.472;13.448;2022-09-03T13:37:57;23.30;1.00
18741;DHT22;9499;52.472;13.448;2022-09-03T13:40:34;23.30;1.00
18741;DHT22;9499;52.472;13.448;2022-09-03T13:43:13;23.30;1.00
18741;DHT22;9499;52.472;13.448;2022-09-03T13:45:45;23.40;1.00
18741;DHT22;9499;52.472;13.448;2022-09-03T13:48:20;23.60;1.00
18741;DHT22;9499;52.472;13.448;2022-09-03T13:51:10;23.80;1.00
18741;DHT22;9499;52.472;13.448;2022-09-03T13:53:43;23.70;1.00
18741;DHT22;9499;52.472;13.448;2022-09-03T13:56:21;23.70;1.00
18741;DHT22;9499;52.472;13.448;2022-09-03T13:58:56;23.60;1.00
18741;DHT22;9499;52.472;13.448;2022-09-03T14:01:39;23.50;1.00
18741;DHT22;9499;52.472;13.448;2022-09-03T14:04:16;23.40;1.00
18741;DHT22;9499;52.472;13.448;2022-09-03T14:06:53;23.60;1.00
18741;DHT22;9499;52.472;13.448;2022-09-03T14:09:29;24.20;1.00
18741;DHT22;9499;52.472;13.448;2022-09-03T14:12:03;24.40;1.00
18741;DHT22;9499;52.472;13.448;2022-09-03T14:14:38;24.20;1.00
18741;DHT22;9499;52.472;13.448;2022-09-03T14:17:12;24.20;1.00
18741;DHT22;9499;52.472;13.448;2022-09-03T14:19:47;24.30;1.00
18741;DHT22;9499;52.472;13.448;2022-09-03T14:22:17;24.50;1.00
18741;DHT22;9499;52.472;13.448;2022-09-03T14:24:49;24.40;1.00
18741;DHT22;9499;52.472;13.448;2022-09-03T14:27:24;24.20;1.00
18741;DHT22;9499;52.472;13.448;2022-09-03T14:29:56;23.90;99.90
18741;DHT22;9499;52.472;13.448;2022-09-03T14:32:30;23.60;99.90
18741;DHT22;9499;52.472;13.448;2022-09-03T14:35:12;23.60;1.00
18741;DHT22;9499;52.472;13.448;2022-09-03T14:37:54;23.60;1.00
18741;DHT22;9499;52.472;13.448;2022-09-03T14:40:29;24.10;1.00
18741;DHT22;9499;52.472;13.448;2022-09-03T14:43:05;24.70;1.00
18741;DHT22;9499;52.472;13.448;2022-09-03T14:45:55;25.30;1.00
18741;DHT22;9499;52.472;13.448;2022-09-03T14:48:34;26.00;1.00
18741;DHT22;9499;52.472;13.448;2022-09-03T14:51:17;26.20;1.00
18741;DHT22;9499;52.472;13.448;2022-09-03T14:54:05;25.90;1.00
18741;DHT22;9499;52.472;13.448;2022-09-03T14:56:48;25.40;99.90
18741;DHT22;9499;52.472;13.448;2022-09-03T14:59:32;24.90;99.90
18741;DHT22;9499;52.472;13.448;2022-09-03T15:02:22;24.50;99.90
18741;DHT22;9499;52.472;13.448;2022-09-03T15:05:07;24.10;99.90
18741;DHT22;9499;52.472;13.448;2022-09-03T15:07:50;23.90;99.90
18741;DHT22;9499;52.472;13.448;2022-09-03T15:10:26;23.70;1.00
18741;DHT22;9499;52.472;13.448;2022-09-03T15:12:58;23.70;1.00
18741;DHT22;9499;52.472;13.448;2022-09-03T15:15:31;23.80;1.00
18741;DHT22;9499;52.472;13.448;2022-09-03T15:18:13;23.90;1.00
18741;DHT22;9499;52.472;13.448;2022-09-03T15:20:48;24.20;1.00
18741;DHT22;9499;52.472;13.448;2022-09-03T15:23:41;24.70;1.00
18741;DHT22;9499;52.472;13.448;2022-09-03T15:26:30;24.90;1.00
18741;DHT22;9499;52.472;13.448;2022-09-03T15:29:15;24.80;1.00
18741;DHT22;9499;52.472;13.448;2022-09-03T15:31:51;24.50;99.90
18741;DHT22;9499;52.472;13.448;2022-09-03T15:34:34;24.30;1.00
18741;DHT22;9499;52.472;13.448;2022-09-03T15:37:10;24.30;1.00
18741;DHT22;9499;52.472;13.448;2022-09-03T15:39:42;24.30;1.00
18741;DHT22;9499;52.472;13.448;2022-09-03T15:42:17;24.40;1.00
18741;DHT22;9499;52.472;13.448;2022-09-03T15:44:49;24.40;1.00
18741;DHT22;9499;52.472;13.448;2022-09-03T15:47:31;24.30;99.90
18741;DHT22;9499;52.472;13.448;2022-09-03T15:50:03;24.30;99.90
18741;DHT22;9499;52.472;13.448;2022-09-03T15:52:39;24.30;1.00
18741;DHT22;9499;52.472;13.448;2022-09-03T15:55:14;24.50;1.00
18741;DHT22;9499;52.472;13.448;2022-09-03T15:57:54;24.40;1.00
18741;DHT22;9499;52.472;13.448;2022-09-03T16:00:30;24.30;99.90
18741;DHT22;9499;52.472;13.448;2022-09-03T16:03:08;24.20;99.90
18741;DHT22;9499;52.472;13.448;2022-09-03T16:05:39;24.20;99.90
18741;DHT22;9499;52.472;13.448;2022-09-03T16:08:12;23.90;99.90
18741;DHT22;9499;52.472;13.448;2022-09-03T16:10:53;23.90;99.90
18741;DHT22;9499;52.472;13.448;2022-09-03T16:13:42;23.90;99.90
18741;DHT22;9499;52.472;13.448;2022-09-03T16:16:13;24.20;99.90
18741;DHT22;9499;52.472;13.448;2022-09-03T16:18:44;24.00;1.00
18741;DHT22;9499;52.472;13.448;2022-09-03T16:21:21;23.80;1.00